Time;durP1;ratioP1;P1;durP2;ratioP2;P2;SDS_P1;SDS_P2;PMS_P1;PMS_P2;Temp;Humidity;BMP_temperature;BMP_pressure;BME280_temperature;BME280_humidity;BME280_pressure;Samples;Min_cycle;Max_cycle;Signal;HPM_P1;HPM_P2
2022/01/21 00:01:04;;;;;;;10.20;0.77;;;1.30;99.90;;;;;;5077463;28;20498;-80
2022/01/21 00:03:30;;;;;;;7.60;0.77;;;1.20;99.90;;;;;;5094846;28;20031;-82
2022/01/21 00:05:56;;;;;;;7.77;1.47;;;1.20;99.90;;;;;;5094250;28;20414;-81
2022/01/21 00:08:21;;;;;;;11.17;1.53;;;1.30;99.90;;;;;;5095322;28;20032;-82
2022/01/21 00:10:48;;;;;;;9.30;1.50;;;1.30;99.90;;;;;;5094063;28;20058;-82
2022/01/21 00:13:20;;;;;;;6.23;0.97;;;1.40;99.90;;;;;;5094378;28;20134;-82
2022/01/21 00:15:45;;;;;;;11.07;1.20;;;1.40;99.90;;;;;;5093860;28;20068;-81
2022/01/21 00:18:12;;;;;;;14.97;2.03;;;1.40;99.90;;;;;;5095354;28;20043;-81
2022/01/21 00:31:35;;;;;;;7.80;1.53;;;1.70;99.90;;;;;;5093447;28;20070;-82
2022/01/21 00:34:00;;;;;;;13.43;1.63;;;1.80;99.90;;;;;;5076201;28;20032;-82
2022/01/21 00:36:26;;;;;;;6.83;0.90;;;1.80;99.90;;;;;;5092966;28;20044;-82
2022/01/21 00:38:54;;;;;;;11.40;1.20;;;1.80;99.90;;;;;;5092578;28;20040;-82
2022/01/21 00:41:24;;;;;;;7.67;1.47;;;1.90;99.90;;;;;;5093043;28;20048;-83
2022/01/21 00:43:49;;;;;;;9.87;1.20;;;1.90;99.90;;;;;;5092891;28;20067;-82
2022/01/21 00:46:15;;;;;;;15.10;2.83;;;1.90;99.90;;;;;;5093328;28;20040;-82
2022/01/21 00:48:40;;;;;;;18.20;1.90;;;2.00;99.90;;;;;;5095873;28;20032;-81
2022/01/21 00:51:06;;;;;;;10.53;2.03;;;2.00;99.90;;;;;;5095417;28;20122;-81
2022/01/21 00:53:32;;;;;;;4.63;0.93;;;2.00;99.90;;;;;;5096235;28;20046;-81
2022/01/21 00:55:58;;;;;;;10.53;1.73;;;2.00;99.90;;;;;;5096021;28;20044;-81
2022/01/21 00:58:24;;;;;;;9.00;1.70;;;2.10;99.90;;;;;;5096900;28;20059;-81
2022/01/21 01:00:49;;;;;;;10.53;1.83;;;2.10;99.90;;;;;;5096928;28;20052;-81
2022/01/21 01:03:19;;;;;;;9.37;1.83;;;2.10;99.90;;;;;;5080417;28;20118;-80
2022/01/21 01:05:46;;;;;;;6.10;1.90;;;2.10;99.90;;;;;;5104632;28;20092;-81
2022/01/21 01:08:11;;;;;;;4.23;0.60;;;2.10;99.90;;;;;;5109907;28;20040;-80
2022/01/21 01:10:48;;;;;;;15.63;1.87;;;2.10;99.90;;;;;;5110822;28;20066;-81
2022/01/21 01:21:26;;;;;;;6.40;1.37;;;2.10;99.90;;;;;;5107406;28;20059;-82
2022/01/21 01:27:36;;;;;;;12.57;3.43;;;2.10;99.90;;;;;;5107328;28;20046;-80
2022/01/21 01:29:36;;;;;;;7.50;1.70;;;2.00;99.90;;;;;;5104795;28;20096;-81
2022/01/21 01:32:03;;;;;;;6.87;1.60;;;2.00;99.90;;;;;;5102240;28;20427;-80
2022/01/21 01:34:29;;;;;;;9.07;0.97;;;1.90;99.90;;;;;;5084753;28;20044;-81
2022/01/21 01:36:58;;;;;;;7.03;0.70;;;1.90;99.90;;;;;;5101159;28;20080;-81
2022/01/21 01:39:37;;;;;;;6.63;1.73;;;1.90;99.90;;;;;;5084555;28;20073;-81
2022/01/21 01:50:05;;;;;;;10.57;0.70;;;1.90;99.90;;;;;;5101163;28;20048;-82
2022/01/21 01:52:32;;;;;;;5.60;2.83;;;1.80;99.90;;;;;;5099714;28;20032;-81
2022/01/21 01:54:58;;;;;;;6.27;1.40;;;1.80;99.90;;;;;;5098721;28;20032;-81
2022/01/21 01:57:24;;;;;;;7.57;0.47;;;1.80;99.90;;;;;;5081693;28;20522;-82
2022/01/21 01:59:50;;;;;;;5.57;0.40;;;1.70;99.90;;;;;;5080316;28;20036;-82
2022/01/21 02:02:17;;;;;;;5.63;0.97;;;1.70;99.90;;;;;;5097812;28;20449;-81
2022/01/21 02:04:45;;;;;;;5.37;0.60;;;1.60;99.90;;;;;;5096309;28;20032;-82
2022/01/21 02:07:11;;;;;;;10.73;0.90;;;1.60;99.90;;;;;;5096762;28;20402;-82
2022/01/21 02:09:37;;;;;;;4.40;0.40;;;1.60;99.90;;;;;;5096733;28;20119;-82
2022/01/21 02:12:05;;;;;;;4.60;0.90;;;1.60;99.90;;;;;;5080514;28;20421;-82
2022/01/21 02:14:35;;;;;;;7.80;0.70;;;1.60;99.90;;;;;;5096989;28;20379;-82
2022/01/21 02:22:17;;;;;;;5.10;0.83;;;1.50;99.90;;;;;;5096178;28;20051;-82
2022/01/21 02:25:15;;;;;;;10.60;1.07;;;1.60;99.90;;;;;;5094291;28;20040;-82
2022/01/21 02:27:31;;;;;;;6.60;1.23;;;1.60;99.90;;;;;;5092766;28;20414;-82
2022/01/21 02:30:02;;;;;;;6.30;0.87;;;1.60;99.90;;;;;;5094078;28;20032;-82
2022/01/21 02:32:28;;;;;;;9.00;1.00;;;1.60;99.90;;;;;;5094032;28;20592;-82
2022/01/21 02:34:54;;;;;;;8.20;0.90;;;1.60;99.90;;;;;;5095803;28;20097;-81
2022/01/21 02:37:21;;;;;;;7.60;0.63;;;1.60;99.90;;;;;;5095745;28;20204;-81
2022/01/21 02:39:47;;;;;;;7.43;1.70;;;1.70;99.90;;;;;;5095932;28;20146;-82
2022/01/21 02:42:13;;;;;;;4.37;0.57;;;1.70;99.90;;;;;;5095034;28;20089;-81
2022/01/21 02:44:39;;;;;;;14.43;2.20;;;1.70;99.90;;;;;;5078756;28;20036;-82
2022/01/21 02:47:06;;;;;;;7.07;0.53;;;1.70;99.90;;;;;;5094704;28;20105;-82
2022/01/21 02:49:33;;;;;;;6.30;1.00;;;1.60;99.90;;;;;;5078597;28;20067;-81
2022/01/21 02:52:03;;;;;;;6.13;1.43;;;1.60;99.90;;;;;;5093940;28;20036;-82
2022/01/21 02:54:33;;;;;;;7.77;1.93;;;1.50;99.90;;;;;;5076717;28;20337;-82
2022/01/21 02:57:00;;;;;;;4.03;0.47;;;1.50;99.90;;;;;;5076640;28;20036;-82
2022/01/21 02:59:26;;;;;;;9.00;0.57;;;1.40;99.90;;;;;;5094631;28;20766;-82
2022/01/21 03:01:52;;;;;;;3.03;0.50;;;1.30;99.90;;;;;;5076229;28;20071;-82
2022/01/21 03:04:48;;;;;;;8.83;2.23;;;1.30;99.90;;;;;;5093292;28;20720;-82
2022/01/21 03:07:07;;;;;;;4.20;0.30;;;1.40;99.90;;;;;;5092451;28;20422;-81
2022/01/21 03:09:32;;;;;;;3.53;0.20;;;1.40;99.90;;;;;;5094335;28;20032;-82
2022/01/21 03:11:58;;;;;;;8.57;0.90;;;1.50;99.90;;;;;;5093333;28;20036;-82
2022/01/21 03:14:24;;;;;;;6.77;1.10;;;1.50;99.90;;;;;;5076172;28;20448;-82
2022/01/21 03:16:49;;;;;;;3.57;0.27;;;1.60;99.90;;;;;;5093726;28;20040;-82
2022/01/21 03:19:15;;;;;;;4.03;0.40;;;1.60;99.90;;;;;;5093834;28;20044;-82
2022/01/21 03:21:41;;;;;;;4.20;0.23;;;1.60;99.90;;;;;;5092838;28;20036;-80
2022/01/21 03:24:06;;;;;;;6.13;0.50;;;1.60;99.90;;;;;;5076229;28;20458;-82
2022/01/21 03:26:32;;;;;;;6.27;0.57;;;1.60;99.90;;;;;;5093925;28;20093;-82
2022/01/21 03:29:00;;;;;;;5.07;0.80;;;1.60;99.90;;;;;;5076712;28;20456;-82
2022/01/21 03:31:26;;;;;;;5.50;0.50;;;1.60;99.90;;;;;;5076970;28;20063;-82
2022/01/21 03:33:52;;;;;;;5.70;1.00;;;1.70;99.90;;;;;;5075683;28;20054;-82
2022/01/21 03:36:18;;;;;;;6.60;0.40;;;1.70;99.90;;;;;;5093835;28;20104;-81
2022/01/21 03:38:44;;;;;;;3.97;0.50;;;1.80;99.90;;;;;;5093115;28;20564;-81
2022/01/21 03:41:10;;;;;;;4.63;0.30;;;1.90;99.90;;;;;;5094278;28;20053;-82
2022/01/21 03:43:35;;;;;;;3.97;0.83;;;1.90;99.90;;;;;;5092395;28;20086;-83
2022/01/21 03:46:03;;;;;;;4.97;0.30;;;1.90;99.90;;;;;;5076405;28;20505;-82
2022/01/21 03:48:28;;;;;;;7.77;0.40;;;1.90;99.90;;;;;;5093603;28;20101;-81
2022/01/21 03:50:54;;;;;;;4.30;0.60;;;1.90;99.90;;;;;;5076571;28;20036;-81
2022/01/21 03:53:20;;;;;;;4.03;0.30;;;1.90;99.90;;;;;;5076227;28;20466;-82
2022/01/21 03:55:47;;;;;;;3.83;0.73;;;1.90;99.90;;;;;;5093110;28;20400;-81
2022/01/21 03:58:14;;;;;;;3.90;0.27;;;2.00;99.90;;;;;;5093222;28;20048;-81
2022/01/21 04:00:45;;;;;;;7.67;1.13;;;1.90;99.90;;;;;;5093170;28;20032;-82
2022/01/21 04:03:12;;;;;;;1.93;0.27;;;2.00;99.90;;;;;;5075471;28;20040;-82
2022/01/21 04:05:38;;;;;;;4.07;0.60;;;1.90;99.90;;;;;;5091482;28;20196;-81
2022/01/21 04:08:05;;;;;;;12.17;1.07;;;1.80;99.90;;;;;;5092929;28;20077;-82
2022/01/21 04:10:31;;;;;;;5.87;0.40;;;1.80;99.90;;;;;;5092193;28;20036;-82
2022/01/21 04:12:56;;;;;;;5.27;0.30;;;1.60;99.90;;;;;;5092556;28;20036;-82
2022/01/21 04:15:23;;;;;;;4.83;0.30;;;1.70;99.90;;;;;;5091831;28;20095;-82
2022/01/21 04:17:49;;;;;;;4.70;0.20;;;1.70;99.90;;;;;;5092032;28;20494;-82
2022/01/21 04:20:14;;;;;;;5.37;0.73;;;1.60;99.90;;;;;;5092802;28;20044;-81
2022/01/21 04:22:40;;;;;;;6.03;0.50;;;1.60;99.90;;;;;;5093342;28;20040;-80
2022/01/21 04:25:07;;;;;;;6.80;1.73;;;1.50;99.90;;;;;;5092846;28;20128;-81
2022/01/21 04:27:33;;;;;;;4.67;0.30;;;1.50;99.90;;;;;;5093355;28;20080;-81
2022/01/21 04:29:58;;;;;;;6.10;0.40;;;1.50;99.90;;;;;;5092490;28;20072;-81
2022/01/21 04:32:24;;;;;;;7.37;0.40;;;1.50;99.90;;;;;;5093370;28;20043;-81
2022/01/21 04:34:50;;;;;;;5.60;0.60;;;1.60;99.90;;;;;;5093200;28;20089;-81
2022/01/21 04:37:16;;;;;;;8.20;0.40;;;1.60;99.90;;;;;;5093935;28;20390;-81
2022/01/21 04:39:50;;;;;;;5.47;0.70;;;1.70;99.90;;;;;;5073823;28;20054;-82
2022/01/21 04:47:30;;;;;;;5.97;1.17;;;1.70;99.90;;;;;;5094098;28;20064;-81
2022/01/21 04:49:56;;;;;;;5.00;0.60;;;1.70;99.90;;;;;;5095128;28;20393;-80
2022/01/21 04:52:22;;;;;;;7.07;1.57;;;1.70;99.90;;;;;;5093240;28;20109;-81
2022/01/21 04:54:49;;;;;;;3.33;0.33;;;1.70;99.90;;;;;;5092146;28;20047;-80
2022/01/21 04:57:15;;;;;;;5.13;0.63;;;1.70;99.90;;;;;;5091019;28;20044;-80
2022/01/21 04:59:41;;;;;;;4.23;0.20;;;1.60;99.90;;;;;;5091734;28;20051;-80
2022/01/21 05:02:07;;;;;;;7.83;0.30;;;1.60;99.90;;;;;;5091476;28;20127;-80
2022/01/21 05:04:33;;;;;;;6.63;0.67;;;1.60;99.90;;;;;;5091284;28;20142;-80
2022/01/21 05:07:01;;;;;;;2.20;0.40;;;1.50;99.90;;;;;;5091238;28;20455;-80
2022/01/21 05:09:32;;;;;;;15.77;2.80;;;1.50;99.90;;;;;;5092543;28;20074;-80
2022/01/21 05:11:59;;;;;;;5.30;0.63;;;1.50;99.90;;;;;;5092080;28;20627;-81
2022/01/21 05:14:40;;;;;;;5.03;0.33;;;1.50;99.90;;;;;;5091836;28;20044;-80
2022/01/21 05:17:07;;;;;;;6.70;1.30;;;1.50;99.90;;;;;;5093214;28;20359;-80
2022/01/21 05:19:32;;;;;;;2.93;0.60;;;1.60;99.90;;;;;;5095939;28;20040;-80
2022/01/21 05:21:58;;;;;;;2.80;0.20;;;1.60;99.90;;;;;;5096197;28;20040;-80
2022/01/21 05:24:24;;;;;;;9.23;0.47;;;1.60;99.90;;;;;;5095916;28;20126;-80
2022/01/21 05:26:57;;;;;;;6.40;1.00;;;1.60;99.90;;;;;;5096041;28;20047;-80
2022/01/21 05:29:25;;;;;;;11.67;1.10;;;1.60;99.90;;;;;;5095422;28;20072;-80
2022/01/21 05:31:51;;;;;;;4.43;0.40;;;1.60;99.90;;;;;;5095981;28;20040;-81
2022/01/21 05:34:17;;;;;;;9.33;0.67;;;1.70;99.90;;;;;;5094575;28;20533;-80
2022/01/21 05:36:43;;;;;;;2.67;0.30;;;1.70;99.90;;;;;;5095428;28;20044;-80
2022/01/21 05:39:10;;;;;;;8.03;2.40;;;1.70;99.90;;;;;;5095259;28;20051;-80
2022/01/21 05:41:38;;;;;;;4.63;0.40;;;1.80;99.90;;;;;;5095451;28;20040;-80
2022/01/21 05:44:10;;;;;;;4.67;0.50;;;1.70;99.90;;;;;;5094084;28;20430;-80
2022/01/21 05:49:19;;;;;;;7.23;0.60;;;1.70;99.90;;;;;;5096346;28;20044;-81
2022/01/21 05:51:45;;;;;;;5.37;0.63;;;1.70;99.90;;;;;;5095222;28;20042;-80
2022/01/21 05:54:12;;;;;;;7.40;1.13;;;1.70;99.90;;;;;;5095793;28;20032;-82
2022/01/21 05:56:39;;;;;;;7.13;0.50;;;1.70;99.90;;;;;;5094888;28;20479;-81
2022/01/21 05:59:06;;;;;;;7.37;0.77;;;1.60;99.90;;;;;;5095127;28;20051;-81
2022/01/21 06:01:35;;;;;;;8.40;0.60;;;1.60;99.90;;;;;;5094678;28;20367;-82
2022/01/21 06:04:02;;;;;;;5.00;1.10;;;1.60;99.90;;;;;;5094851;28;20044;-81
2022/01/21 06:06:29;;;;;;;9.83;1.50;;;1.60;99.90;;;;;;5094655;28;20138;-81
2022/01/21 06:08:55;;;;;;;10.23;1.27;;;1.50;99.90;;;;;;5095226;28;20040;-82
2022/01/21 06:11:20;;;;;;;8.80;2.30;;;1.60;99.90;;;;;;5094819;28;20039;-81
2022/01/21 06:13:48;;;;;;;17.90;1.93;;;1.60;99.90;;;;;;5095078;28;20392;-81
2022/01/21 06:16:13;;;;;;;8.83;1.57;;;1.60;99.90;;;;;;5094396;28;20136;-82
2022/01/21 06:18:39;;;;;;;8.20;0.90;;;1.60;99.90;;;;;;5094679;28;20123;-82
2022/01/21 06:21:04;;;;;;;4.37;0.70;;;1.60;99.90;;;;;;5094261;28;20149;-82
2022/01/21 06:23:30;;;;;;;9.90;1.37;;;1.60;99.90;;;;;;5094935;28;20123;-81
2022/01/21 06:25:55;;;;;;;9.53;0.43;;;1.70;99.90;;;;;;5094808;28;20048;-81
2022/01/21 06:28:22;;;;;;;8.87;1.47;;;1.70;99.90;;;;;;5093274;28;20036;-81
2022/01/21 06:30:49;;;;;;;4.30;0.70;;;1.70;99.90;;;;;;5094088;28;20036;-81
2022/01/21 06:33:14;;;;;;;5.47;0.33;;;1.70;99.90;;;;;;5092910;28;20048;-82
2022/01/21 06:35:40;;;;;;;8.90;0.90;;;1.70;99.90;;;;;;5093889;28;20044;-81
2022/01/21 06:38:06;;;;;;;4.87;0.30;;;1.70;99.90;;;;;;5077704;28;20054;-81
2022/01/21 06:40:31;;;;;;;5.03;0.40;;;1.80;99.90;;;;;;5094539;28;20103;-81
2022/01/21 06:43:01;;;;;;;15.23;1.27;;;1.90;99.90;;;;;;5093750;28;20124;-81
2022/01/21 06:45:27;;;;;;;9.30;1.43;;;1.90;99.90;;;;;;5093918;28;20048;-81
2022/01/21 06:47:53;;;;;;;7.70;0.87;;;2.00;99.90;;;;;;5092912;28;20066;-82
2022/01/21 06:50:18;;;;;;;9.83;0.47;;;2.10;99.90;;;;;;5093975;28;20040;-81
2022/01/21 06:52:44;;;;;;;5.00;0.50;;;2.10;99.90;;;;;;5080129;28;20153;-81
2022/01/21 06:55:10;;;;;;;6.07;0.60;;;2.10;99.90;;;;;;5094010;28;20028;-81
2022/01/21 06:57:39;;;;;;;6.80;0.40;;;2.10;99.90;;;;;;5092685;28;20555;-82
2022/01/21 07:00:08;;;;;;;5.40;1.00;;;2.10;99.90;;;;;;5094036;28;20097;-81
2022/01/21 07:02:33;;;;;;;7.03;0.83;;;2.00;99.90;;;;;;5092809;28;20093;-82
2022/01/21 07:04:59;;;;;;;5.60;0.87;;;2.10;99.90;;;;;;5093385;28;20040;-81
2022/01/21 07:07:24;;;;;;;8.93;1.80;;;2.00;99.90;;;;;;5093078;28;20398;-82
2022/01/21 07:09:50;;;;;;;9.07;1.07;;;2.00;99.90;;;;;;5093734;28;20036;-81
2022/01/21 07:12:15;;;;;;;6.90;1.30;;;2.00;99.90;;;;;;5076241;28;20501;-81
2022/01/21 07:14:41;;;;;;;8.00;0.50;;;2.00;99.90;;;;;;5093504;28;20044;-82
2022/01/21 07:17:07;;;;;;;4.20;0.30;;;2.10;99.90;;;;;;5093455;28;20044;-81
2022/01/21 07:19:32;;;;;;;3.13;0.20;;;2.10;99.90;;;;;;5093948;28;20406;-81
2022/01/21 07:21:58;;;;;;;4.83;0.80;;;2.10;99.90;;;;;;5093587;28;20036;-82
2022/01/21 07:24:24;;;;;;;5.67;0.73;;;2.10;99.90;;;;;;5093387;28;20040;-81
2022/01/21 07:26:50;;;;;;;4.63;0.53;;;2.10;99.90;;;;;;5093150;28;20473;-81
2022/01/21 07:29:15;;;;;;;7.67;1.37;;;2.10;99.90;;;;;;5092898;28;20040;-82
2022/01/21 07:31:41;;;;;;;8.07;1.33;;;2.20;99.90;;;;;;5092800;28;20043;-81
2022/01/21 07:34:06;;;;;;;6.97;0.70;;;2.20;99.90;;;;;;5092516;28;20032;-82
2022/01/21 07:36:33;;;;;;;6.33;0.50;;;2.20;99.90;;;;;;5093254;28;20043;-81
2022/01/21 07:39:00;;;;;;;7.50;1.40;;;2.20;99.90;;;;;;5093641;28;20083;-81
2022/01/21 07:41:25;;;;;;;10.87;1.43;;;2.10;99.90;;;;;;5093615;28;20032;-82
2022/01/21 07:43:52;;;;;;;3.77;0.67;;;2.10;99.90;;;;;;5094077;28;20097;-81
2022/01/21 07:46:18;;;;;;;8.13;0.60;;;2.10;99.90;;;;;;5095427;28;20036;-83
2022/01/21 07:48:44;;;;;;;9.40;0.93;;;2.10;99.90;;;;;;5091439;28;20097;-80
2022/01/21 07:51:10;;;;;;;10.67;0.90;;;2.00;99.90;;;;;;5091510;28;20062;-80
2022/01/21 07:53:35;;;;;;;10.73;0.90;;;2.00;99.90;;;;;;5090983;28;20123;-80
2022/01/21 07:56:01;;;;;;;4.27;0.47;;;2.00;99.90;;;;;;5090847;28;20088;-82
2022/01/21 07:58:27;;;;;;;4.57;0.67;;;2.00;99.90;;;;;;5092384;28;20040;-80
2022/01/21 08:00:53;;;;;;;12.33;2.17;;;2.00;99.90;;;;;;5090805;28;20058;-80
2022/01/21 08:03:19;;;;;;;9.10;1.13;;;2.00;99.90;;;;;;5093520;28;20036;-81
2022/01/21 08:05:46;;;;;;;7.23;0.90;;;2.00;99.90;;;;;;5075502;28;20036;-81
2022/01/21 08:08:12;;;;;;;5.03;0.90;;;1.90;99.90;;;;;;5093987;28;20048;-81
2022/01/21 08:10:37;;;;;;;8.80;1.23;;;1.90;99.90;;;;;;5093078;28;20077;-81
2022/01/21 08:13:03;;;;;;;4.03;0.50;;;1.80;99.90;;;;;;5094011;28;20036;-81
2022/01/21 08:15:29;;;;;;;8.97;1.90;;;1.80;99.90;;;;;;5093641;28;20036;-81
2022/01/21 08:17:55;;;;;;;13.00;1.30;;;1.80;99.90;;;;;;5092494;28;20063;-81
2022/01/21 08:20:21;;;;;;;10.37;1.33;;;1.80;99.90;;;;;;5092449;28;20032;-81
2022/01/21 08:22:46;;;;;;;5.60;1.00;;;1.80;99.90;;;;;;5092933;28;20040;-81
2022/01/21 08:25:12;;;;;;;7.07;1.17;;;1.80;99.90;;;;;;5075355;28;20500;-81
2022/01/21 08:27:38;;;;;;;13.03;1.00;;;1.80;99.90;;;;;;5092731;28;20047;-81
2022/01/21 08:30:04;;;;;;;10.20;0.87;;;1.90;99.90;;;;;;5090877;28;20036;-82
2022/01/21 08:32:30;;;;;;;9.00;0.70;;;1.90;99.90;;;;;;5092449;28;20036;-82
2022/01/21 08:34:56;;;;;;;14.00;1.87;;;1.90;99.90;;;;;;5091463;28;20051;-81
2022/01/21 08:37:22;;;;;;;6.20;1.03;;;2.00;99.90;;;;;;5092488;28;20054;-82
2022/01/21 08:39:47;;;;;;;9.20;1.00;;;2.10;99.90;;;;;;5075146;28;20085;-81
2022/01/21 08:42:13;;;;;;;7.10;1.10;;;2.20;99.90;;;;;;5092040;28;20097;-81
2022/01/21 08:44:39;;;;;;;8.13;1.43;;;2.30;99.90;;;;;;5091232;28;20113;-81
2022/01/21 08:47:05;;;;;;;8.63;0.70;;;2.30;99.90;;;;;;5091630;28;20044;-82
2022/01/21 08:49:30;;;;;;;6.87;1.57;;;2.40;99.90;;;;;;5093214;28;20051;-82
2022/01/21 08:51:57;;;;;;;11.53;1.50;;;2.50;99.90;;;;;;5094340;28;20036;-83
2022/01/21 08:54:24;;;;;;;6.67;0.83;;;2.60;99.90;;;;;;5100009;28;20040;-83
2022/01/21 08:56:52;;;;;;;9.07;1.30;;;2.70;99.90;;;;;;5097031;28;20040;-81
2022/01/21 08:59:19;;;;;;;6.27;1.20;;;2.90;99.90;;;;;;5096665;28;21042;-82
2022/01/21 09:01:45;;;;;;;6.93;0.80;;;3.00;99.90;;;;;;5097047;28;20387;-82
2022/01/21 09:04:11;;;;;;;7.70;1.27;;;3.10;99.90;;;;;;5098339;28;20097;-82
2022/01/21 09:06:36;;;;;;;6.53;1.33;;;3.20;99.90;;;;;;5079594;28;20036;-82
2022/01/21 09:09:03;;;;;;;9.00;1.70;;;3.20;99.90;;;;;;5099058;28;20036;-81
2022/01/21 09:11:28;;;;;;;8.30;0.90;;;3.30;99.90;;;;;;5097077;28;20433;-81
2022/01/21 09:13:54;;;;;;;19.03;5.73;;;3.30;99.90;;;;;;5097999;28;20048;-81
2022/01/21 09:16:20;;;;;;;59.73;26.90;;;3.40;99.90;;;;;;5096089;28;20067;-82
2022/01/21 09:18:48;;;;;;;57.10;25.52;;;3.40;99.90;;;;;;5097608;28;20039;-82
2022/01/21 09:21:17;;;;;;;82.72;46.05;;;3.40;99.90;;;;;;5097265;28;20052;-81
2022/01/21 09:23:43;;;;;;;7.35;1.67;;;3.50;99.90;;;;;;5098900;28;20123;-83
2022/01/21 09:26:09;;;;;;;5.82;0.70;;;3.50;99.90;;;;;;5097470;28;20048;-82
2022/01/21 09:28:35;;;;;;;5.90;1.80;;;3.50;99.90;;;;;;5097379;28;20047;-82
2022/01/21 09:31:01;;;;;;;11.47;0.90;;;3.60;99.90;;;;;;5098847;28;20036;-83
2022/01/21 09:33:27;;;;;;;8.85;1.98;;;3.60;99.90;;;;;;5097507;28;20028;-83
2022/01/21 09:35:52;;;;;;;14.00;4.07;;;3.60;99.90;;;;;;5098157;28;20145;-82
2022/01/21 09:38:19;;;;;;;16.35;2.25;;;3.60;99.90;;;;;;5098468;28;20367;-82
2022/01/21 09:40:48;;;;;;;10.40;0.80;;;3.60;99.90;;;;;;5098315;28;20048;-82
2022/01/21 09:43:15;;;;;;;6.35;0.98;;;3.70;99.90;;;;;;5098769;28;20040;-83
2022/01/21 09:45:41;;;;;;;6.00;1.55;;;3.70;99.90;;;;;;5097882;28;20047;-82
2022/01/21 09:48:09;;;;;;;6.85;1.75;;;3.70;99.90;;;;;;5097524;28;20053;-83
2022/01/21 09:50:37;;;;;;;5.50;1.40;;;3.70;99.90;;;;;;5098745;28;20032;-83
2022/01/21 09:53:03;;;;;;;7.00;1.75;;;3.90;99.90;;;;;;5097750;28;20244;-82
2022/01/21 09:55:29;;;;;;;7.35;1.10;;;3.90;99.90;;;;;;5081353;28;20100;-82
2022/01/21 09:57:56;;;;;;;9.90;2.70;;;4.00;99.90;;;;;;5096262;28;20081;-81
2022/01/21 10:00:25;;;;;;;9.80;1.25;;;3.90;99.90;;;;;;5098727;28;20058;-82
2022/01/21 10:02:54;;;;;;;9.00;1.15;;;4.00;99.90;;;;;;5096044;28;20048;-81
2022/01/21 10:05:20;;;;;;;8.27;1.30;;;4.00;99.90;;;;;;5097066;28;20078;-82
2022/01/21 10:07:48;;;;;;;7.05;1.35;;;4.10;99.90;;;;;;5095648;28;20076;-82
2022/01/21 10:10:16;;;;;;;8.98;1.02;;;4.10;99.90;;;;;;5096491;28;20503;-82
2022/01/21 10:12:45;;;;;;;10.45;1.25;;;4.10;99.90;;;;;;5094914;28;20403;-82
2022/01/21 10:15:12;;;;;;;8.50;1.48;;;4.10;99.90;;;;;;5060417;28;20373;-82
2022/01/21 10:17:38;;;;;;;10.13;2.22;;;4.10;99.90;;;;;;5074932;28;20045;-83
2022/01/21 10:20:18;;;;;;;9.65;1.35;;;4.20;99.90;;;;;;5074006;28;20090;-82
2022/01/21 10:23:03;;;;;;;10.48;1.50;;;4.20;99.90;;;;;;5073964;28;20538;-82
2022/01/21 10:25:30;;;;;;;4.65;1.45;;;4.20;99.90;;;;;;5073387;28;20044;-83
2022/01/21 10:28:17;;;;;;;12.55;1.27;;;4.20;99.90;;;;;;5077118;28;20036;-82
2022/01/21 10:30:45;;;;;;;11.75;1.90;;;4.30;99.90;;;;;;5093200;28;20047;-82
2022/01/21 10:33:22;;;;;;;7.03;0.85;;;4.30;99.90;;;;;;5093798;28;20122;-82
2022/01/21 10:35:50;;;;;;;7.30;1.95;;;4.30;99.90;;;;;;5092980;28;20398;-82
2022/01/21 10:38:29;;;;;;;13.07;2.30;;;4.30;99.90;;;;;;5093455;28;20048;-83
2022/01/21 10:41:07;;;;;;;11.13;1.38;;;4.30;99.90;;;;;;5092364;28;20036;-79
2022/01/21 10:43:33;;;;;;;7.80;1.25;;;4.30;99.90;;;;;;5092869;28;20402;-81
2022/01/21 10:46:00;;;;;;;10.15;0.95;;;4.30;99.90;;;;;;5092521;28;20054;-82
2022/01/21 10:48:32;;;;;;;9.73;2.00;;;4.30;99.90;;;;;;5092647;28;20036;-83
2022/01/21 10:51:24;;;;;;;8.55;1.98;;;4.40;99.90;;;;;;5092664;28;20040;-79
2022/01/21 10:53:50;;;;;;;8.02;2.10;;;4.40;99.90;;;;;;5092226;28;20040;-80
2022/01/21 10:56:17;;;;;;;9.77;1.48;;;4.40;99.90;;;;;;5092037;28;20043;-80
2022/01/21 10:58:50;;;;;;;5.65;0.95;;;4.50;99.90;;;;;;5092134;28;20126;-81
2022/01/21 11:01:18;;;;;;;7.97;1.80;;;4.60;99.90;;;;;;5075714;28;20044;-80
2022/01/21 11:04:01;;;;;;;5.90;1.02;;;4.60;99.90;;;;;;5076192;28;20044;-80
2022/01/21 11:06:36;;;;;;;7.57;1.40;;;4.70;99.90;;;;;;5092309;28;20380;-81
2022/01/21 11:09:35;;;;;;;8.88;1.30;;;4.90;99.90;;;;;;5092436;28;20032;-80
2022/01/21 11:12:11;;;;;;;8.40;1.75;;;4.90;99.90;;;;;;5076799;28;20086;-80
2022/01/21 11:14:53;;;;;;;8.27;2.00;;;4.90;99.90;;;;;;5091654;28;20055;-79
2022/01/21 11:17:18;;;;;;;11.25;1.65;;;5.00;99.90;;;;;;5075072;28;20210;-81
2022/01/21 11:20:08;;;;;;;14.77;1.70;;;5.00;99.90;;;;;;5092116;28;20147;-81
2022/01/21 11:22:55;;;;;;;7.53;1.55;;;5.00;99.90;;;;;;5091969;28;20069;-81
2022/01/21 11:25:44;;;;;;;10.02;1.23;;;5.00;99.90;;;;;;5091677;28;20096;-81
2022/01/21 11:28:11;;;;;;;7.65;0.80;;;5.10;99.90;;;;;;5091815;28;20121;-82
2022/01/21 11:30:37;;;;;;;14.85;2.15;;;5.10;99.90;;;;;;5092362;28;20036;-82
2022/01/21 11:33:03;;;;;;;6.20;1.40;;;5.10;99.90;;;;;;5076307;28;20118;-83
2022/01/21 11:35:29;;;;;;;13.00;2.20;;;5.10;99.90;;;;;;5092546;28;20072;-83
2022/01/21 11:37:57;;;;;;;11.55;3.10;;;5.10;99.90;;;;;;5092997;28;20375;-82
2022/01/21 11:40:23;;;;;;;7.10;1.20;;;5.10;99.90;;;;;;5093315;28;20040;-83
2022/01/21 11:42:51;;;;;;;12.98;2.00;;;5.20;99.90;;;;;;5092424;28;20052;-83
2022/01/21 11:45:31;;;;;;;8.30;1.48;;;5.10;99.90;;;;;;5092056;28;20043;-80
2022/01/21 11:50:33;;;;;;;10.88;1.80;;;5.20;99.90;;;;;;5092550;28;20510;-81
2022/01/21 11:52:59;;;;;;;14.52;2.85;;;5.30;99.90;;;;;;5076321;28;20062;-81
2022/01/21 11:55:40;;;;;;;15.70;2.78;;;5.30;99.90;;;;;;5092235;28;20032;-81
2022/01/21 11:58:18;;;;;;;8.43;2.10;;;5.40;99.90;;;;;;5061498;28;20032;-81
2022/01/21 12:00:50;;;;;;;10.77;2.08;;;5.40;99.90;;;;;;5092647;28;20044;-81
2022/01/21 12:03:23;;;;;;;17.60;3.30;;;5.50;99.90;;;;;;5092242;28;20499;-82
2022/01/21 12:05:49;;;;;;;16.83;5.30;;;5.60;99.90;;;;;;5092542;28;20089;-82
2022/01/21 12:08:14;;;;;;;15.52;4.70;;;5.70;99.90;;;;;;5092462;28;20048;-82
2022/01/21 12:10:42;;;;;;;22.23;5.82;;;5.80;99.90;;;;;;5092321;28;20039;-82
2022/01/21 12:13:22;;;;;;;15.25;4.00;;;5.90;99.90;;;;;;5092544;28;20790;-81
2022/01/21 12:19:09;;;;;;;16.20;5.88;;;6.10;99.90;;;;;;5092180;28;20032;-81
2022/01/21 12:21:43;;;;;;;12.65;4.43;;;6.20;99.90;;;;;;5091362;28;20114;-81
2022/01/21 12:24:10;;;;;;;19.38;6.95;;;6.20;99.90;;;;;;5091607;28;20050;-82
2022/01/21 12:26:52;;;;;;;31.27;12.13;;;6.30;99.90;;;;;;5090501;28;20522;-81
2022/01/21 12:29:18;;;;;;;8.77;1.60;;;6.30;99.90;;;;;;5090886;28;20131;-81
2022/01/21 12:32:00;;;;;;;32.03;5.45;;;6.30;99.90;;;;;;5091843;28;20260;-80
2022/01/21 12:34:28;;;;;;;9.15;1.10;;;6.40;99.90;;;;;;5091549;28;20089;-81
2022/01/21 12:37:04;;;;;;;17.25;2.42;;;6.40;99.90;;;;;;5091602;28;20043;-82
2022/01/21 12:39:45;;;;;;;7.05;0.80;;;6.50;99.90;;;;;;5092413;28;20036;-81
2022/01/21 12:42:26;;;;;;;8.82;0.80;;;6.50;99.90;;;;;;5092187;28;20394;-82
2022/01/21 12:45:07;;;;;;;10.55;1.25;;;6.50;99.90;;;;;;5071899;28;20119;-82
2022/01/21 12:47:43;;;;;;;7.40;1.00;;;6.50;99.90;;;;;;5071638;28;20051;-82
2022/01/21 12:50:26;;;;;;;5.40;1.15;;;6.50;99.90;;;;;;5072306;28;20044;-81
2022/01/21 12:53:08;;;;;;;8.95;0.80;;;6.50;99.90;;;;;;5081796;28;20391;-81
2022/01/21 12:58:37;;;;;;;7.20;0.70;;;6.40;99.90;;;;;;5077334;28;20067;-81
2022/01/21 13:01:06;;;;;;;5.95;1.00;;;6.40;99.90;;;;;;5091538;28;20036;-82
2022/01/21 13:03:43;;;;;;;6.07;1.10;;;6.40;99.90;;;;;;5092290;28;20040;-81
2022/01/21 13:06:21;;;;;;;8.20;1.05;;;6.50;99.90;;;;;;5091546;28;20122;-82
2022/01/21 13:09:02;;;;;;;6.13;0.70;;;6.50;99.90;;;;;;5074562;28;20035;-83
2022/01/21 13:11:29;;;;;;;4.47;0.30;;;6.60;99.90;;;;;;5090068;28;20036;-82
2022/01/21 13:16:58;;;;;;;7.00;0.68;;;6.60;99.90;;;;;;5090884;28;20056;-81
2022/01/21 13:19:24;;;;;;;8.07;0.52;;;6.70;99.90;;;;;;5075368;28;20164;-81
2022/01/21 13:21:50;;;;;;;5.97;0.57;;;6.70;99.90;;;;;;5091770;28;20082;-82
2022/01/21 13:24:26;;;;;;;6.85;0.80;;;6.70;99.90;;;;;;5092351;28;20131;-82
2022/01/21 13:26:53;;;;;;;10.32;0.90;;;6.60;99.90;;;;;;5091893;28;20055;-81
2022/01/21 13:29:31;;;;;;;9.10;1.25;;;6.60;99.90;;;;;;5092365;28;20036;-81
2022/01/21 13:31:59;;;;;;;4.70;0.77;;;6.60;99.90;;;;;;5090958;28;20036;-80
2022/01/21 13:34:36;;;;;;;14.27;6.47;;;6.50;99.90;;;;;;5091691;28;20044;-81
2022/01/21 13:37:03;;;;;;;10.02;1.02;;;6.60;99.90;;;;;;5074875;28;20039;-80
2022/01/21 13:39:32;;;;;;;7.07;1.70;;;6.70;99.90;;;;;;5077957;28;20047;-80
2022/01/21 13:42:06;;;;;;;12.70;2.05;;;6.70;99.90;;;;;;5094725;28;20094;-81
2022/01/21 13:44:58;;;;;;;10.75;2.42;;;6.80;99.90;;;;;;5095531;28;20134;-82
2022/01/21 13:47:39;;;;;;;27.80;12.98;;;6.80;99.90;;;;;;5084354;28;20157;-81
2022/01/21 13:50:32;;;;;;;9.38;2.65;;;6.90;99.90;;;;;;5094360;28;20101;-81
2022/01/21 13:53:02;;;;;;;9.65;1.80;;;6.90;99.90;;;;;;5091469;28;20044;-80
2022/01/21 13:55:40;;;;;;;9.68;1.33;;;6.90;99.90;;;;;;5078123;28;20036;-80
2022/01/21 13:58:27;;;;;;;8.18;2.00;;;6.80;99.90;;;;;;5094719;28;20040;-80